Moira, United Kingdom
Current Conditions -  °F | °C
As of 8:50 AM on Saturday 29 Nov 2014 (Local Time) from EGAA Reporting Station
Haze Haze  
Wind Chill: 48°   Ceiling: 2600
Heat Index: 48°   Visibility: 1.5mi
Dew Point: 48°   Wind: 3mph
Humidity: 100%   Direction: 90°E
Pressure: 29.8"   Gusts: NA
Location:  54.48°N, 6.23°W
Report Text: EGAA 290850Z 09003KT 2500 HZ FEW009 SCT014 BKN026 09/09 Q1009
Loading
Personal Weather Stations






























Interactive Weather Map New forecast layout! Learn more

10-Day Weather Forecast

Advertisements
Track Severe Weather on mobile